Otsego, Michigan
Current Conditions -  °F | °C
As of 7:53 AM on Friday 24 Oct 2014 (Local Time) from KAZO Reporting Station
Haze Haze  
Wind Chill: 46°   Ceiling: 2800
Heat Index: 48°   Visibility: 6mi
Dew Point: 42°   Wind: 5mph
Humidity: 80%   Direction: 170°S
Pressure: 30.06"   Gusts: NA
Location:  42.46°N, 85.7°W
Report Text: KAZO 241153Z 17004KT 6SM HZ OVC028 09/06 A3006 RMK AO2 SLP182 T00890056 10089 20072 58003
Loading
Personal Weather Stations






























Interactive Weather Map
Tropical Storm Tracking
New forecast layout! Learn more

10-Day Weather Forecast

Advertisements
Track Severe Weather on mobile